Main page
METAR-TAF:

Airports :

Baia Mare, Romania

Baia Mare Airport

latitude: 47-40N, longitude: 023-35E, elevation: 218 m

Current weather observation

The report was made 24 minutes ago, at 00:00 UTC
Wind 3 kt from the North/Northeast
Temperature
Pressure 1019 hPa
Visibility 10 km or more

METAR: LRBM 010000Z AUTO 02003KT 9999 FEW044/// SCT210/// ///// Q1019

Time: 03:24 (00:24 UTC)

Forecast

The report was made 10 hours and 24 minutes ago, at 14:00 UTC
Forecast valid from 30 at 15 UTC to 30 at 24 UTC
Wind 4 kt from variable directions
Visibility 10 km or more
Scattered clouds at a height of 3000 ft

TAF: LRBM 301400Z 3015/3024 VRB04KT 9999 SCT030

METAR-TAF

Weather observations and forecasts of more than 4000 airports (METAR and TAF reports).

The available stations are represented by yellow and red dots on the map.

Hover mouse over dot to see the name of the station.

Then click to see weather observations and forecasts.

To change the map : click on the green buttons with a black cross to zoom in, on the green button with a dash to zoom out, or on the green arrows for adjacent maps.


METAR-TAF: